Terminal Aerodrome Forecast
Issued by NWS Cleveland, OH

Home | Current Version | Previous Version | Graphics & Text | Print | Product List | Glossary On
Versions: 1 2 3 4 5 6 7 8 9 10 11 12 13 14 15 16 17 18 19 20 21 22 23 24 25
000
FTUS41 KCLE 120533
TAFCAK
TAF
KCAK 120533Z 1206/1306 VRB03KT 6SM -SN OVC035
      TEMPO 1206/1209 3SM -SN OVC025
     FM120900 26010KT 1 1/2SM -SN OVC015
     FM121400 31015G25KT 6SM -SHSN OVC025
     FM121800 31018G28KT P6SM OVC035=

USA.gov is the U.S. government's official web portal to all federal, state and local government web resources and services.